North Dighton, Massachusetts
Current Conditions -  °F | °C
As of 3:52 PM on Tuesday 21 Oct 2014 (Local Time) from KTAN Reporting Station
Few Clouds Few Clouds  
Wind Chill: 65°   Ceiling: Unl
Heat Index: 65°   Visibility: 10mi
Dew Point: 54°   Wind: 6mph
Humidity: 68%   Direction: 100°E
Pressure: 29.89"   Gusts: NA
Location:  41.86°N, 71.12°W
Report Text: KTAN 211952Z AUTO 10005KT 10SM FEW019 18/12 A2989 RMK AO2 SLP122 T01830122
Loading
Personal Weather Stations






























Interactive Weather Map
Tropical Storm Tracking
New forecast layout! Learn more

10-Day Weather Forecast

Advertisements
Track Severe Weather on mobile